Historique des mesures à Cassis (13260), France
Quotidien Résumé Septembre 5, 2017 Unités:  Métrique    US   Métrique/US
« Précédent (Jour)
Suivant (Jour) »
Quotidien Hebdomadaire Mensuel Annuel Période au choix
  Maximum: Minimum: Moyenne:
Température: TemperatureC °C 18.1 °C 20.8 °C
Point de rosée: DewpointC °C 8.9 °C 13.2 °C
Humidité: Humidity % 52 % 58 %
Vitesse du vent: 0 km/h 0 km/h 3.1 km/h
Rafales: 0 km/h - -
Vent:- - ESE
Pression: PressurehPa hPa 1014.8 hPa -
Précipitations: 0.0 mm    
Historical Graphs
 
 
Mesures pour : Septembre 5, 2017
Heure Temperature Point de rosée Pression Vent Vitesse du vent Rafales Humidité Pluie (par heure) Conditions
TemperatureC °C DewpointC °C PressurehPa hPa Calm     Humidity % HourlyPrecipMM mm SoftwareType W/m2
00:11 19.1 °C 10.7 °C 1016.1 hPa NNE 1.8 km/h 3.4 km/h 58 % 0.0 mm open2300-1.11 W/m2
01:11 19.3 °C 10.0 °C 1015.8 hPa Calm     55 % 0.0 mm open2300-1.11 W/m2
02:11 19.1 °C 9.8 °C 1015.5 hPa Calm   2.3 km/h 55 % 0.0 mm open2300-1.11 W/m2
03:11 19.0 °C 8.9 °C 1015.5 hPa Calm   2.3 km/h 52 % 0.0 mm open2300-1.11 W/m2
04:11 18.9 °C 9.4 °C 1015.1 hPa Calm     54 % 0.0 mm open2300-1.11 W/m2
06:11 18.4 °C 11.0 °C 1014.8 hPa NNE 2.3 km/h 2.3 km/h 62 % 0.0 mm open2300-1.11 W/m2
07:11 18.1 °C 10.7 °C 1015.5 hPa Calm   1.8 km/h 62 % 0.0 mm open2300-1.11 W/m2
08:11 18.4 °C 10.7 °C 1015.8 hPa Calm     61 % 0.0 mm open2300-1.11 W/m2
09:11 19.4 °C 12.2 °C 1015.8 hPa SE 1.8 km/h 5.6 km/h 63 % 0.0 mm open2300-1.11 W/m2
10:11 20.0 °C 12.7 °C 1016.5 hPa SSW 10.3 km/h 10.3 km/h 63 % 0.0 mm open2300-1.11 W/m2
11:11 22.4 °C 15.2 °C 1016.8 hPa SSE 1.8 km/h 7.6 km/h 64 % 0.0 mm open2300-1.11 W/m2
12:11 24.1 °C 16.4 °C 1017.2 hPa SSE 5.1 km/h 7.6 km/h 62 % 0.0 mm open2300-1.11 W/m2
13:12 24.6 °C 16.8 °C 1016.8 hPa ENE 5.1 km/h 12.7 km/h 62 % 0.0 mm open2300-1.11 W/m2
14:11 25.1 °C 16.2 °C 1016.5 hPa SSE 5.1 km/h 8.9 km/h 58 % 0.0 mm open2300-1.11 W/m2
15:11 24.8 °C 16.8 °C 1015.8 hPa SE 3.4 km/h 6.4 km/h 61 % 0.0 mm open2300-1.11 W/m2
16:11 24.5 °C 16.5 °C 1015.8 hPa SE 6.4 km/h 9.8 km/h 61 % 0.0 mm open2300-1.11 W/m2
17:11 24.4 °C 16.7 °C 1015.5 hPa SSE 8 km/h 8 km/h 62 % 0.0 mm open2300-1.11 W/m2
18:11 23.9 °C 16.2 °C 1015.5 hPa SSE 2.9 km/h 4.2 km/h 62 % 0.0 mm open2300-1.11 W/m2
19:11 23.8 °C 15.3 °C 1015.1 hPa ESE 2.9 km/h 3.4 km/h 59 % 0.0 mm open2300-1.11 W/m2
20:11 23.1 °C 14.1 °C 1015.5 hPa Calm     57 % 0.0 mm open2300-1.11 W/m2
21:11 22.9 °C 15.2 °C 1015.8 hPa NNE 4.7 km/h 14 km/h 62 % 0.0 mm open2300-1.11 W/m2
22:11 22.9 °C 17.4 °C 1016.5 hPa North 6.9 km/h 6.9 km/h 71 % 0.0 mm open2300-1.11 W/m2
23:11 22.6 °C 17.7 °C 1016.1 hPa NNE 3.4 km/h 3.4 km/h 74 % 0.0 mm open2300-1.11 W/m2
Observations météo à CASSIS
WU-History script by Weather Underground - 1 mb